createdAt,value
2018-05-23T00:02:11.356Z,70.10
2018-05-23T00:04:39.606Z,70.10
2018-05-23T00:07:07.092Z,70.80
2018-05-23T00:09:35.315Z,69.90
2018-05-23T00:12:02.778Z,69.90
2018-05-23T00:14:30.285Z,69.80
2018-05-23T00:16:58.529Z,69.80
2018-05-23T00:19:26.035Z,69.80
2018-05-23T00:21:53.512Z,69.80
2018-05-23T00:24:21.066Z,69.80
2018-05-23T00:26:48.549Z,69.80
2018-05-23T00:29:16.013Z,69.80
2018-05-23T00:31:43.503Z,69.80
2018-05-23T00:34:10.960Z,69.90
2018-05-23T00:36:38.461Z,70.00
2018-05-23T00:39:05.935Z,70.10
2018-05-23T00:41:33.391Z,71.00
2018-05-23T00:44:00.888Z,70.30
2018-05-23T00:46:28.426Z,70.30
2018-05-23T00:48:55.948Z,70.20
2018-05-23T00:51:23.431Z,70.20
2018-05-23T00:53:50.900Z,70.30
2018-05-23T00:56:18.379Z,70.50
2018-05-23T00:58:45.847Z,70.50
2018-05-23T01:01:13.304Z,70.40
2018-05-23T01:03:40.784Z,70.50
2018-05-23T01:06:08.248Z,71.00
2018-05-23T01:08:35.740Z,70.10
2018-05-23T01:11:03.281Z,69.90
2018-05-23T01:13:30.738Z,69.80
2018-05-23T01:15:58.222Z,69.70
2018-05-23T01:18:25.716Z,69.50
2018-05-23T01:20:53.197Z,69.40
2018-05-23T01:23:20.681Z,69.30
2018-05-23T01:25:48.143Z,69.40
2018-05-23T01:28:15.752Z,69.30
2018-05-23T01:30:43.227Z,69.10
2018-05-23T01:33:10.680Z,69.10
2018-05-23T01:35:38.189Z,69.30
2018-05-23T01:38:05.664Z,69.20
2018-05-23T01:40:34.220Z,69.40
2018-05-23T01:43:01.687Z,69.50
2018-05-23T01:45:29.177Z,69.30
2018-05-23T01:47:56.646Z,69.20
2018-05-23T01:50:24.117Z,69.20
2018-05-23T01:52:51.612Z,69.20
2018-05-23T01:55:19.100Z,69.20
2018-05-23T01:57:47.348Z,69.40
2018-05-23T02:00:14.813Z,69.40
2018-05-23T02:02:42.299Z,69.20
2018-05-23T02:05:09.752Z,69.80
2018-05-23T02:07:37.225Z,68.90
2018-05-23T02:10:04.726Z,69.00
2018-05-23T02:12:32.185Z,69.20
2018-05-23T02:14:59.670Z,69.30
2018-05-23T02:17:27.145Z,69.40
2018-05-23T02:19:54.634Z,69.60
2018-05-23T02:22:22.129Z,69.70
2018-05-23T02:24:49.660Z,69.70
2018-05-23T02:27:17.901Z,69.60
2018-05-23T02:29:45.388Z,69.60
2018-05-23T02:32:13.619Z,69.80
2018-05-23T02:34:41.077Z,69.80
2018-05-23T02:37:08.561Z,69.80
2018-05-23T02:39:36.036Z,70.00
2018-05-23T02:42:04.296Z,70.00
2018-05-23T02:44:31.754Z,70.00
2018-05-23T02:46:59.300Z,70.00
2018-05-23T02:49:27.517Z,70.10
2018-05-23T02:51:55.744Z,70.10
2018-05-23T02:54:23.212Z,70.10
2018-05-23T02:56:50.708Z,70.10
2018-05-23T02:59:18.939Z,70.20
2018-05-23T03:01:46.394Z,70.10
2018-05-23T03:04:13.904Z,70.10
2018-05-23T03:06:42.136Z,70.20
2018-05-23T03:09:10.669Z,70.10
2018-05-23T03:11:38.928Z,70.00
2018-05-23T03:14:06.392Z,70.00
2018-05-23T03:16:34.637Z,70.00
2018-05-23T03:19:02.129Z,70.00
2018-05-23T03:21:30.382Z,70.00
2018-05-23T03:23:57.856Z,70.00
2018-05-23T03:26:26.116Z,70.80
2018-05-23T03:28:53.607Z,69.70
2018-05-23T03:31:22.049Z,69.50
2018-05-23T03:33:51.367Z,69.40
2018-05-23T03:36:19.043Z,69.30
2018-05-23T03:38:47.469Z,69.20
2018-05-23T03:41:14.995Z,69.20
2018-05-23T03:43:43.244Z,69.20
2018-05-23T03:46:10.758Z,69.20
2018-05-23T03:48:38.223Z,69.20
2018-05-23T03:51:05.700Z,69.30
2018-05-23T03:53:33.183Z,69.20
2018-05-23T03:56:00.671Z,69.30
2018-05-23T03:58:28.189Z,69.50
2018-05-23T04:01:07.678Z,69.80
2018-05-23T04:03:47.106Z,70.30
2018-05-23T04:06:26.473Z,70.70
2018-05-23T04:08:54.029Z,70.90
2018-05-23T04:11:21.488Z,71.20
2018-05-23T04:13:48.951Z,71.60
2018-05-23T04:16:16.429Z,72.00
2018-05-23T04:18:43.892Z,72.30
2018-05-23T04:21:11.382Z,72.60
2018-05-23T04:23:38.857Z,72.90
2018-05-23T04:26:06.322Z,73.30
2018-05-23T04:28:33.843Z,73.60
2018-05-23T04:31:01.352Z,74.20
2018-05-23T04:33:28.822Z,74.50
2018-05-23T04:35:56.316Z,75.00
2018-05-23T04:38:23.797Z,75.30
2018-05-23T04:40:51.279Z,75.20
2018-05-23T04:43:19.444Z,75.40
2018-05-23T04:45:47.022Z,75.50
2018-05-23T04:48:14.501Z,75.60
2018-05-23T04:50:42.012Z,75.90
2018-05-23T04:53:09.502Z,76.00
2018-05-23T04:55:36.987Z,76.30
2018-05-23T04:58:04.459Z,76.20
2018-05-23T05:00:32.028Z,76.00
2018-05-23T05:02:59.517Z,76.10
2018-05-23T05:05:27.008Z,76.20
2018-05-23T05:07:54.495Z,76.00
2018-05-23T05:10:22.000Z,76.10
2018-05-23T05:12:49.481Z,76.30
2018-05-23T05:15:16.957Z,76.30
2018-05-23T05:17:44.445Z,76.40
2018-05-23T05:20:11.896Z,76.30
2018-05-23T05:22:39.403Z,76.30
2018-05-23T05:25:06.866Z,76.30
2018-05-23T05:27:34.364Z,76.20
2018-05-23T05:30:01.866Z,75.90
2018-05-23T05:32:29.370Z,76.00
2018-05-23T05:34:56.828Z,75.90
2018-05-23T05:37:24.304Z,76.50
2018-05-23T05:39:51.810Z,75.40
2018-05-23T05:42:19.300Z,75.20
2018-05-23T05:44:46.873Z,75.00
2018-05-23T05:47:14.339Z,74.90
2018-05-23T05:49:41.824Z,74.90
2018-05-23T05:52:09.268Z,74.90
2018-05-23T05:54:36.756Z,74.80
2018-05-23T05:57:04.207Z,74.80
2018-05-23T05:59:31.782Z,74.90
2018-05-23T06:01:59.320Z,74.70
2018-05-23T06:04:26.763Z,74.80
2018-05-23T06:06:54.229Z,74.80
2018-05-23T06:09:21.774Z,75.00
2018-05-23T06:11:49.304Z,74.90
2018-05-23T06:14:16.784Z,74.90
2018-05-23T06:16:44.278Z,74.90
2018-05-23T06:19:11.776Z,74.80
2018-05-23T06:21:39.266Z,74.90
2018-05-23T06:24:06.727Z,74.90
2018-05-23T06:26:34.186Z,74.70
2018-05-23T06:29:01.685Z,74.60
2018-05-23T06:31:29.197Z,74.60
2018-05-23T06:33:56.660Z,74.40
2018-05-23T06:36:24.124Z,73.90
2018-05-23T06:38:51.758Z,73.30
2018-05-23T06:41:19.232Z,73.10
2018-05-23T06:43:46.696Z,73.00
2018-05-23T06:46:14.185Z,72.50
2018-05-23T06:48:41.660Z,72.10
2018-05-23T06:51:09.137Z,71.30
2018-05-23T06:53:36.627Z,70.70
2018-05-23T06:56:04.107Z,70.30
2018-05-23T06:58:32.366Z,69.40
2018-05-23T07:00:59.857Z,69.50
2018-05-23T07:03:27.356Z,69.00
2018-05-23T07:05:54.975Z,68.30
2018-05-23T07:08:22.324Z,68.10
2018-05-23T07:10:49.816Z,68.40
2018-05-23T07:13:17.294Z,67.80
2018-05-23T07:15:44.793Z,68.10
2018-05-23T07:18:13.124Z,68.20
2018-05-23T07:20:41.352Z,68.50
2018-05-23T07:23:08.929Z,67.70
2018-05-23T07:25:36.435Z,66.80
2018-05-23T07:28:03.941Z,66.40
2018-05-23T07:30:31.404Z,66.20
2018-05-23T07:32:58.874Z,65.90
2018-05-23T07:35:26.327Z,65.50
2018-05-23T07:37:53.859Z,65.30
2018-05-23T07:40:21.355Z,65.20
2018-05-23T07:42:48.845Z,65.00
2018-05-23T07:45:16.353Z,64.90
2018-05-23T07:47:43.820Z,65.00
2018-05-23T07:50:11.291Z,65.10
2018-05-23T07:52:38.772Z,64.90
2018-05-23T07:55:06.243Z,64.50
2018-05-23T07:57:33.704Z,64.20
2018-05-23T08:00:01.191Z,64.10
2018-05-23T08:02:28.664Z,64.10
2018-05-23T08:04:56.124Z,64.70
2018-05-23T08:07:23.575Z,63.60
2018-05-23T08:09:51.095Z,63.40
2018-05-23T08:12:18.589Z,63.00
2018-05-23T08:14:46.822Z,62.90
2018-05-23T08:17:14.297Z,62.80
2018-05-23T08:19:41.797Z,63.00
2018-05-23T08:22:09.252Z,63.00
2018-05-23T08:24:36.731Z,63.00
2018-05-23T08:27:04.186Z,62.50
2018-05-23T08:29:31.676Z,62.20
2018-05-23T08:31:59.138Z,62.20
2018-05-23T08:34:26.615Z,61.70
2018-05-23T08:36:54.100Z,61.80
2018-05-23T08:39:21.580Z,62.00
2018-05-23T08:41:49.061Z,62.30
2018-05-23T08:44:16.527Z,62.70
2018-05-23T08:46:44.004Z,63.00
2018-05-23T08:49:11.512Z,63.40
2018-05-23T08:51:38.975Z,63.50
2018-05-23T08:54:06.436Z,63.50
2018-05-23T08:56:33.920Z,63.90
2018-05-23T08:59:01.416Z,64.50
2018-05-23T09:01:29.730Z,63.40
2018-05-23T09:03:57.211Z,63.40
2018-05-23T09:06:24.676Z,63.90
2018-05-23T09:08:52.180Z,63.80
2018-05-23T09:11:20.415Z,63.50
2018-05-23T09:13:47.932Z,63.50
2018-05-23T09:16:15.426Z,63.20
2018-05-23T09:18:42.894Z,62.20
2018-05-23T09:21:10.397Z,61.60
2018-05-23T09:23:37.877Z,61.00
2018-05-23T09:26:05.379Z,60.20
2018-05-23T09:28:32.841Z,59.70
2018-05-23T09:31:00.309Z,59.50
2018-05-23T09:33:28.572Z,58.10
2018-05-23T09:35:56.036Z,58.10
2018-05-23T09:38:23.515Z,57.90
2018-05-23T09:40:51.779Z,57.20
2018-05-23T09:43:20.044Z,57.50
2018-05-23T09:45:47.500Z,57.30
2018-05-23T09:48:14.989Z,57.50
2018-05-23T09:50:43.216Z,57.80
2018-05-23T09:53:10.706Z,57.80
2018-05-23T09:55:38.931Z,57.50
2018-05-23T09:58:06.503Z,57.40
2018-05-23T10:00:34.025Z,57.10
2018-05-23T10:03:01.481Z,57.20
2018-05-23T10:05:28.953Z,57.00
2018-05-23T10:07:56.620Z,56.50
2018-05-23T10:10:24.154Z,56.10
2018-05-23T10:12:52.405Z,56.20
2018-05-23T10:15:19.887Z,56.00
2018-05-23T10:17:48.154Z,55.70
2018-05-23T10:20:16.400Z,56.10
2018-05-23T10:22:43.883Z,55.70
2018-05-23T10:25:11.346Z,55.80
2018-05-23T10:27:39.711Z,56.10
2018-05-23T10:30:07.197Z,56.10
2018-05-23T10:32:35.457Z,55.40
2018-05-23T10:35:03.700Z,55.50
2018-05-23T10:37:31.200Z,55.40
2018-05-23T10:39:59.504Z,53.40
2018-05-23T10:42:26.963Z,53.40
2018-05-23T10:44:54.448Z,53.00
2018-05-23T10:47:21.917Z,52.40
2018-05-23T10:49:49.423Z,52.00
2018-05-23T10:52:16.922Z,51.10
2018-05-23T10:54:44.397Z,51.20
2018-05-23T10:57:11.955Z,51.20
2018-05-23T10:59:39.342Z,50.10
2018-05-23T11:02:06.811Z,49.20
2018-05-23T11:04:35.049Z,49.40
2018-05-23T11:07:02.508Z,49.30
2018-05-23T11:09:30.034Z,49.30
2018-05-23T11:11:57.595Z,48.00
2018-05-23T11:14:25.071Z,47.70
2018-05-23T11:16:52.555Z,48.60
2018-05-23T11:19:20.037Z,49.00
2018-05-23T11:21:48.262Z,48.40
2018-05-23T11:24:15.853Z,48.40
2018-05-23T11:26:43.313Z,49.00
2018-05-23T11:29:10.800Z,49.40
2018-05-23T11:31:39.039Z,48.90
2018-05-23T11:34:06.510Z,48.80
2018-05-23T11:36:33.980Z,48.80
2018-05-23T11:39:01.448Z,48.40
2018-05-23T11:41:28.913Z,47.80
2018-05-23T11:43:56.409Z,46.60
2018-05-23T11:46:23.921Z,46.10
2018-05-23T11:48:52.148Z,46.10
2018-05-23T11:51:19.615Z,46.10
2018-05-23T11:53:47.087Z,46.00
2018-05-23T11:56:15.316Z,46.20
2018-05-23T11:58:42.826Z,45.90
2018-05-23T12:01:10.319Z,45.20
2018-05-23T12:03:38.544Z,44.60
2018-05-23T12:06:06.034Z,44.00
2018-05-23T12:08:34.287Z,44.70
2018-05-23T12:11:01.757Z,44.50
2018-05-23T12:13:29.392Z,44.70
2018-05-23T12:15:56.857Z,44.80
2018-05-23T12:18:24.353Z,44.50
2018-05-23T12:20:52.612Z,43.80
2018-05-23T12:23:20.080Z,43.70
2018-05-23T12:25:47.568Z,42.90
2018-05-23T12:28:15.028Z,42.60
2018-05-23T12:30:42.516Z,42.40
2018-05-23T12:33:09.992Z,41.70
2018-05-23T12:35:37.449Z,41.80
2018-05-23T12:38:04.985Z,41.70
2018-05-23T12:40:32.460Z,41.40
2018-05-23T12:42:59.927Z,41.20
2018-05-23T12:45:27.427Z,41.00
2018-05-23T12:47:55.664Z,40.30
2018-05-23T12:50:23.132Z,40.20
2018-05-23T12:52:50.608Z,40.20
2018-05-23T12:55:18.845Z,39.80
2018-05-23T12:57:46.388Z,39.80
2018-05-23T13:00:13.818Z,39.70
2018-05-23T13:02:41.321Z,39.10
2018-05-23T13:05:08.803Z,39.60
2018-05-23T13:07:36.259Z,40.20
2018-05-23T13:10:03.737Z,40.40
2018-05-23T13:12:32.096Z,40.50
2018-05-23T13:14:59.480Z,40.40
2018-05-23T13:17:27.740Z,40.90
2018-05-23T13:19:55.192Z,40.90
2018-05-23T13:22:22.656Z,40.60
2018-05-23T13:24:50.181Z,40.40
2018-05-23T13:27:17.665Z,40.30
2018-05-23T13:29:45.139Z,40.90
2018-05-23T13:32:13.397Z,41.30
2018-05-23T13:34:40.855Z,41.10
2018-05-23T13:37:08.341Z,41.50
2018-05-23T13:39:36.564Z,41.10
2018-05-23T13:42:04.034Z,41.00
2018-05-23T13:44:31.500Z,40.60
2018-05-23T13:46:58.987Z,39.30
2018-05-23T13:49:27.311Z,38.90
2018-05-23T13:51:54.805Z,38.80
2018-05-23T13:54:22.256Z,37.60
2018-05-23T13:56:49.727Z,36.40
2018-05-23T13:59:17.184Z,35.10
2018-05-23T14:01:44.694Z,34.50
2018-05-23T14:04:12.168Z,32.90
2018-05-23T14:06:39.644Z,30.20
2018-05-23T14:09:07.132Z,29.00
2018-05-23T14:11:35.377Z,27.00
2018-05-23T14:14:02.853Z,27.00
2018-05-23T14:16:30.332Z,26.40
2018-05-23T14:18:58.620Z,25.70
2018-05-23T14:21:26.832Z,25.50
2018-05-23T14:23:54.308Z,25.40
2018-05-23T14:26:21.765Z,25.10
2018-05-23T14:28:49.290Z,24.90
2018-05-23T14:31:16.745Z,25.00
2018-05-23T14:33:44.224Z,25.20
2018-05-23T14:36:11.768Z,24.50
2018-05-23T14:38:39.216Z,24.30
2018-05-23T14:41:06.673Z,24.10
2018-05-23T14:43:34.196Z,24.00
2018-05-23T14:46:01.627Z,24.30
2018-05-23T14:48:29.114Z,23.70
2018-05-23T14:50:56.593Z,23.40
2018-05-23T14:53:24.846Z,23.90
2018-05-23T14:55:52.461Z,23.90
2018-05-23T14:58:19.974Z,24.10
2018-05-23T15:00:48.233Z,24.00
2018-05-23T15:03:15.727Z,23.90
2018-05-23T15:05:43.971Z,24.50
2018-05-23T15:08:11.453Z,24.40
2018-05-23T15:10:39.698Z,25.80
2018-05-23T15:13:07.152Z,25.70
2018-05-23T15:15:34.625Z,25.50
2018-05-23T15:18:02.156Z,25.20
2018-05-23T15:20:29.633Z,24.60
2018-05-23T15:22:57.088Z,23.90
2018-05-23T15:25:24.565Z,23.20
2018-05-23T15:27:52.052Z,22.40
2018-05-23T15:30:19.516Z,21.90
2018-05-23T15:32:47.016Z,21.70
2018-05-23T15:35:14.595Z,21.90
2018-05-23T15:37:42.021Z,22.40
2018-05-23T15:40:09.482Z,23.00
2018-05-23T15:42:36.940Z,23.50
2018-05-23T15:45:04.420Z,24.60
2018-05-23T15:47:31.886Z,25.60
2018-05-23T15:49:59.374Z,26.00
2018-05-23T15:52:27.609Z,27.40
2018-05-23T15:54:55.090Z,27.30
2018-05-23T15:57:22.557Z,28.10
2018-05-23T15:59:50.890Z,28.70
2018-05-23T16:02:18.362Z,28.70
2018-05-23T16:04:45.854Z,29.10
2018-05-23T16:07:14.102Z,30.10
2018-05-23T16:09:41.574Z,30.00
2018-05-23T16:12:09.359Z,30.80
2018-05-23T16:14:37.249Z,31.20
2018-05-23T16:17:04.758Z,31.00
2018-05-23T16:19:32.247Z,31.50
2018-05-23T16:22:00.636Z,31.90
2018-05-23T16:24:28.146Z,31.80
2018-05-23T16:26:55.640Z,31.80
2018-05-23T16:29:23.956Z,30.90
2018-05-23T16:31:51.507Z,30.90
2018-05-23T16:34:19.031Z,30.60
2018-05-23T16:36:47.264Z,31.10
2018-05-23T16:39:14.759Z,30.50
2018-05-23T16:41:42.261Z,30.80
2018-05-23T16:44:09.707Z,31.00
2018-05-23T16:46:37.164Z,31.00
2018-05-23T16:49:04.677Z,30.90
2018-05-23T16:51:32.160Z,30.60
2018-05-23T16:54:00.397Z,31.30
2018-05-23T16:56:27.976Z,31.30
2018-05-23T16:58:55.685Z,31.60
2018-05-23T17:01:23.175Z,31.80
2018-05-23T17:03:50.994Z,32.20
2018-05-23T17:06:18.752Z,32.40
2018-05-23T17:08:46.428Z,32.60
2018-05-23T17:11:13.939Z,32.50
2018-05-23T17:13:41.453Z,32.20
2018-05-23T17:16:09.734Z,32.00
2018-05-23T17:18:37.209Z,32.00
2018-05-23T17:21:04.705Z,31.70
2018-05-23T17:23:32.209Z,31.60
2018-05-23T17:25:59.752Z,31.20
2018-05-23T17:28:27.983Z,30.30
2018-05-23T17:30:55.501Z,30.30
2018-05-23T17:33:23.042Z,30.00
2018-05-23T17:35:50.469Z,30.00
2018-05-23T17:38:17.951Z,29.80
2018-05-23T17:40:45.469Z,29.80
2018-05-23T17:43:12.955Z,29.80
2018-05-23T17:45:40.481Z,30.00
2018-05-23T17:48:07.901Z,30.30
2018-05-23T17:50:36.151Z,29.80
2018-05-23T17:53:03.637Z,29.70
2018-05-23T17:55:31.879Z,27.60
2018-05-23T17:57:59.366Z,27.60
2018-05-23T18:00:27.596Z,26.30
2018-05-23T18:02:55.080Z,26.30
2018-05-23T18:05:22.544Z,26.80
2018-05-23T18:07:49.993Z,27.50
2018-05-23T18:10:17.493Z,27.90
2018-05-23T18:12:45.734Z,28.90
2018-05-23T18:15:13.207Z,28.90
2018-05-23T18:17:41.450Z,29.80
2018-05-23T18:20:08.915Z,29.80
2018-05-23T18:22:36.376Z,30.10
2018-05-23T18:25:04.696Z,30.40
2018-05-23T18:27:32.928Z,31.20
2018-05-23T18:30:00.383Z,31.20
2018-05-23T18:32:27.897Z,31.30
2018-05-23T18:34:55.439Z,31.70
2018-05-23T18:37:22.933Z,32.60
2018-05-23T18:39:50.447Z,32.10
2018-05-23T18:42:17.913Z,32.40
2018-05-23T18:44:46.410Z,33.40
2018-05-23T18:47:13.910Z,33.00
2018-05-23T18:49:41.387Z,33.20
2018-05-23T18:52:09.117Z,33.40
2018-05-23T18:54:36.633Z,33.60
2018-05-23T18:57:04.443Z,33.90
2018-05-23T18:59:31.875Z,34.00
2018-05-23T19:01:59.526Z,34.40
2018-05-23T19:04:27.968Z,35.40
2018-05-23T19:06:56.444Z,35.40
2018-05-23T19:09:23.985Z,35.30
2018-05-23T19:11:51.517Z,35.80
2018-05-23T19:14:19.910Z,36.90
2018-05-23T19:16:48.514Z,36.90
2018-05-23T19:19:16.150Z,36.90
2018-05-23T19:21:43.640Z,37.20
2018-05-23T19:24:11.130Z,37.60
2018-05-23T19:26:38.627Z,38.00
2018-05-23T19:29:07.037Z,38.00
2018-05-23T19:31:34.532Z,37.90
2018-05-23T19:34:02.267Z,39.10
2018-05-23T19:36:29.728Z,38.50
2018-05-23T19:38:57.176Z,38.50
2018-05-23T19:41:24.918Z,38.60
2018-05-23T19:43:52.669Z,38.90
2018-05-23T19:46:20.320Z,39.00
2018-05-23T19:48:48.629Z,39.30
2018-05-23T19:51:16.836Z,39.80
2018-05-23T19:53:44.340Z,39.80
2018-05-23T19:56:11.900Z,39.80
2018-05-23T19:58:40.327Z,40.00
2018-05-23T20:01:07.995Z,40.00
2018-05-23T20:03:36.351Z,40.20
2018-05-23T20:06:05.067Z,40.50
2018-05-23T20:08:32.572Z,40.50
2018-05-23T20:11:00.033Z,40.90
2018-05-23T20:13:28.276Z,41.40
2018-05-23T20:15:55.727Z,41.40
2018-05-23T20:18:23.212Z,41.40
2018-05-23T20:20:50.702Z,41.50
2018-05-23T20:23:18.945Z,41.50
2018-05-23T20:25:46.437Z,41.50
2018-05-23T20:28:13.920Z,41.60
2018-05-23T20:30:41.395Z,41.70
2018-05-23T20:33:08.864Z,41.70
2018-05-23T20:35:36.320Z,41.80
2018-05-23T20:38:03.987Z,41.70
2018-05-23T20:40:31.497Z,41.90
2018-05-23T20:42:58.963Z,41.80
2018-05-23T20:45:26.430Z,41.80
2018-05-23T20:47:53.916Z,41.90
2018-05-23T20:50:21.406Z,41.80
2018-05-23T20:52:49.644Z,41.90
2018-05-23T20:55:17.128Z,41.90
2018-05-23T20:57:44.603Z,42.00
2018-05-23T21:00:12.912Z,42.00
2018-05-23T21:02:40.369Z,42.00
2018-05-23T21:05:07.890Z,42.10
2018-05-23T21:07:35.306Z,42.10
2018-05-23T21:10:02.792Z,42.00
2018-05-23T21:12:30.258Z,42.10
2018-05-23T21:14:57.723Z,41.90
2018-05-23T21:17:25.192Z,41.90
2018-05-23T21:19:52.669Z,41.70
2018-05-23T21:22:20.131Z,41.80
2018-05-23T21:24:47.675Z,41.90
2018-05-23T21:27:15.920Z,41.60
2018-05-23T21:29:43.427Z,41.60
2018-05-23T21:32:10.888Z,41.50
2018-05-23T21:34:38.376Z,41.50
2018-05-23T21:37:05.828Z,41.30
2018-05-23T21:39:33.281Z,41.10
2018-05-23T21:42:00.756Z,41.20
2018-05-23T21:44:28.233Z,41.10
2018-05-23T21:46:55.701Z,41.20
2018-05-23T21:49:23.150Z,41.30
2018-05-23T21:51:50.614Z,41.10
2018-05-23T21:54:18.840Z,41.10
2018-05-23T21:56:46.326Z,41.10
2018-05-23T21:59:13.805Z,41.10
2018-05-23T22:01:41.271Z,41.20
2018-05-23T22:04:08.764Z,41.20
2018-05-23T22:06:36.240Z,40.70
2018-05-23T22:09:03.771Z,41.00
2018-05-23T22:11:31.223Z,40.90
2018-05-23T22:13:58.704Z,40.90
2018-05-23T22:16:26.191Z,40.90
2018-05-23T22:18:53.673Z,40.70
2018-05-23T22:21:21.144Z,40.70
2018-05-23T22:23:49.380Z,40.50
2018-05-23T22:26:16.875Z,40.50
2018-05-23T22:28:45.117Z,40.40
2018-05-23T22:31:12.587Z,41.00
2018-05-23T22:33:40.081Z,40.40
2018-05-23T22:36:07.562Z,40.50
2018-05-23T22:38:35.032Z,40.40
2018-05-23T22:41:02.514Z,40.40
2018-05-23T22:43:29.996Z,40.40
2018-05-23T22:45:57.455Z,40.30
2018-05-23T22:48:25.705Z,40.50
2018-05-23T22:50:53.204Z,40.50
2018-05-23T22:53:21.467Z,40.50
2018-05-23T22:55:48.928Z,40.40
2018-05-23T22:58:17.158Z,40.70
2018-05-23T23:00:44.656Z,40.70
2018-05-23T23:03:12.199Z,40.60
2018-05-23T23:05:39.651Z,40.60
2018-05-23T23:08:07.124Z,40.60
2018-05-23T23:10:34.581Z,40.80
2018-05-23T23:13:02.068Z,40.80
2018-05-23T23:15:30.315Z,41.00
2018-05-23T23:17:57.764Z,41.00
2018-05-23T23:20:25.236Z,41.20
2018-05-23T23:22:52.688Z,41.20
2018-05-23T23:25:20.165Z,41.30
2018-05-23T23:27:47.640Z,41.50
2018-05-23T23:30:15.127Z,41.40
2018-05-23T23:32:42.583Z,41.50
2018-05-23T23:35:10.062Z,41.60
2018-05-23T23:37:37.513Z,41.60
2018-05-23T23:40:05.013Z,41.70
2018-05-23T23:42:33.236Z,41.80
2018-05-23T23:45:00.955Z,41.80
2018-05-23T23:47:28.187Z,42.00
2018-05-23T23:49:55.710Z,42.10
2018-05-23T23:52:23.179Z,42.00
2018-05-23T23:54:50.663Z,42.20
2018-05-23T23:57:18.124Z,42.20
2018-05-23T23:59:45.617Z,42.20
